createdAt,value
2017-05-07T00:00:19.656Z,0
2017-05-07T00:01:19.683Z,0
2017-05-07T00:02:20.010Z,0
2017-05-07T00:03:19.859Z,0
2017-05-07T00:04:20.075Z,0
2017-05-07T00:05:19.953Z,0
2017-05-07T00:06:19.822Z,0
2017-05-07T00:07:19.853Z,0
2017-05-07T00:08:20.480Z,0
2017-05-07T00:09:20.205Z,0
2017-05-07T00:10:19.937Z,0
2017-05-07T00:11:20.584Z,0
2017-05-07T00:12:20.402Z,0
2017-05-07T00:13:20.019Z,0
2017-05-07T00:14:20.702Z,0
2017-05-07T00:15:20.377Z,0
2017-05-07T00:16:20.411Z,0
2017-05-07T00:17:20.439Z,0
2017-05-07T00:18:20.764Z,0
2017-05-07T00:19:20.808Z,0
2017-05-07T00:20:20.603Z,0
2017-05-07T00:21:20.860Z,0
2017-05-07T00:22:20.670Z,0
2017-05-07T00:23:20.303Z,0
2017-05-07T00:24:20.927Z,0
2017-05-07T00:25:20.364Z,0
2017-05-07T00:26:20.689Z,0
2017-05-07T00:27:20.546Z,0
2017-05-07T00:28:20.459Z,0
2017-05-07T00:29:20.522Z,0
2017-05-07T00:30:20.804Z,0
2017-05-07T00:31:21.138Z,0
2017-05-07T00:32:21.213Z,0
2017-05-07T00:33:20.930Z,0
2017-05-07T00:34:21.260Z,0
2017-05-07T00:35:21.025Z,0
2017-05-07T00:36:21.571Z,0
2017-05-07T00:37:21.078Z,0
2017-05-07T00:38:20.724Z,0
2017-05-07T00:39:21.057Z,0
2017-05-07T00:40:21.538Z,0
2017-05-07T00:41:21.107Z,0
2017-05-07T00:42:20.836Z,0
2017-05-07T00:43:20.863Z,0
2017-05-07T00:44:20.938Z,0
2017-05-07T00:45:21.236Z,0
2017-05-07T00:46:21.311Z,0
2017-05-07T00:47:21.000Z,0
2017-05-07T00:48:21.614Z,0
2017-05-07T00:49:21.034Z,0
2017-05-07T00:50:21.371Z,0
2017-05-07T00:51:21.081Z,0
2017-05-07T00:52:21.412Z,0
2017-05-07T00:53:21.752Z,0
2017-05-07T00:54:21.188Z,0
2017-05-07T00:55:21.500Z,0
2017-05-07T00:56:21.543Z,0
2017-05-07T00:57:21.567Z,0
2017-05-07T00:58:21.642Z,0
2017-05-07T00:59:21.629Z,0
2017-05-07T01:00:21.341Z,0
2017-05-07T01:01:21.718Z,0
2017-05-07T01:02:21.694Z,0
2017-05-07T01:03:22.214Z,0
2017-05-07T01:04:21.750Z,0
2017-05-07T01:05:21.829Z,0
2017-05-07T01:06:21.509Z,0
2017-05-07T01:07:21.849Z,0
2017-05-07T01:08:22.173Z,0
2017-05-07T01:09:22.193Z,0
2017-05-07T01:10:21.628Z,0
2017-05-07T01:11:21.650Z,0
2017-05-07T01:12:21.975Z,0
2017-05-07T01:13:22.007Z,0
2017-05-07T01:14:22.030Z,0
2017-05-07T01:15:22.363Z,0
2017-05-07T01:16:22.087Z,0
2017-05-07T01:17:22.126Z,0
2017-05-07T01:18:22.150Z,0
2017-05-07T01:19:21.873Z,0
2017-05-07T01:20:22.264Z,0
2017-05-07T01:21:22.230Z,0
2017-05-07T01:22:22.256Z,0
2017-05-07T01:23:22.289Z,0
2017-05-07T01:24:22.616Z,0
2017-05-07T01:25:22.336Z,0
2017-05-07T01:26:22.977Z,0
2017-05-07T01:27:22.453Z,0
2017-05-07T01:28:22.119Z,0
2017-05-07T01:29:22.461Z,0
2017-05-07T01:30:22.230Z,0
2017-05-07T01:31:22.801Z,0
2017-05-07T01:32:22.338Z,0
2017-05-07T01:33:22.562Z,0
2017-05-07T01:34:22.597Z,0
2017-05-07T01:35:22.665Z,0
2017-05-07T01:36:23.249Z,0
2017-05-07T01:37:23.020Z,0
2017-05-07T01:38:23.005Z,0
2017-05-07T01:39:22.731Z,0
2017-05-07T01:40:23.073Z,0
2017-05-07T01:41:22.589Z,0
2017-05-07T01:42:22.813Z,0
2017-05-07T01:43:22.843Z,0
2017-05-07T01:44:23.172Z,0
2017-05-07T01:45:22.916Z,0
2017-05-07T01:46:22.942Z,0
2017-05-07T01:47:23.264Z,0
2017-05-07T01:48:22.988Z,0
2017-05-07T01:49:23.012Z,0
2017-05-07T01:50:23.475Z,0
2017-05-07T01:51:23.154Z,0
2017-05-07T01:52:23.094Z,0
2017-05-07T01:53:23.387Z,0
2017-05-07T01:54:23.148Z,0
2017-05-07T01:55:23.140Z,0
2017-05-07T01:56:23.270Z,0
2017-05-07T01:57:23.537Z,0
2017-05-07T01:58:23.310Z,0
2017-05-07T01:59:23.291Z,0
2017-05-07T02:00:23.356Z,0
2017-05-07T02:01:23.766Z,0
2017-05-07T02:02:23.371Z,0
2017-05-07T02:03:23.703Z,0
2017-05-07T02:04:23.431Z,0
2017-05-07T02:05:23.765Z,0
2017-05-07T02:06:24.216Z,0
2017-05-07T02:07:23.809Z,0
2017-05-07T02:08:23.614Z,0
2017-05-07T02:09:23.259Z,0
2017-05-07T02:10:23.598Z,0
2017-05-07T02:11:23.624Z,0
2017-05-07T02:12:23.343Z,0
2017-05-07T02:13:23.696Z,0
2017-05-07T02:14:24.006Z,0
2017-05-07T02:15:23.742Z,0
2017-05-07T02:16:23.462Z,0
2017-05-07T02:17:23.484Z,0
2017-05-07T02:18:24.120Z,0
2017-05-07T02:19:24.443Z,0
2017-05-07T02:20:23.869Z,0
2017-05-07T02:21:24.200Z,0
2017-05-07T02:22:23.671Z,0
2017-05-07T02:23:24.554Z,0
2017-05-07T02:24:23.976Z,0
2017-05-07T02:25:24.011Z,0
2017-05-07T02:26:23.737Z,0
2017-05-07T02:27:24.365Z,0
2017-05-07T02:28:24.390Z,0
2017-05-07T02:29:24.116Z,0
2017-05-07T02:30:23.847Z,0
2017-05-07T02:31:24.581Z,0
2017-05-07T02:32:23.906Z,0
2017-05-07T02:33:24.220Z,0
2017-05-07T02:34:24.268Z,0
2017-05-07T02:35:23.992Z,0
2017-05-07T02:36:24.314Z,0
2017-05-07T02:37:24.638Z,0
2017-05-07T02:38:24.372Z,0
2017-05-07T02:39:24.756Z,0
2017-05-07T02:40:24.448Z,0
2017-05-07T02:41:24.443Z,0
2017-05-07T02:42:24.478Z,0
2017-05-07T02:43:24.825Z,0
2017-05-07T02:44:24.537Z,0
2017-05-07T02:45:24.569Z,0
2017-05-07T02:46:24.590Z,0
2017-05-07T02:47:24.628Z,0
2017-05-07T02:48:24.353Z,0
2017-05-07T02:49:25.275Z,0
2017-05-07T02:50:24.403Z,0
2017-05-07T02:51:25.042Z,0
2017-05-07T02:52:24.754Z,0
2017-05-07T02:53:24.789Z,0
2017-05-07T02:54:24.810Z,0
2017-05-07T02:55:25.246Z,0
2017-05-07T02:56:24.885Z,0
2017-05-07T02:57:24.893Z,0
2017-05-07T02:58:25.123Z,0
2017-05-07T02:59:25.560Z,0
2017-05-07T03:00:24.992Z,0
2017-05-07T03:01:24.699Z,0
2017-05-07T03:02:24.728Z,0
2017-05-07T03:03:25.369Z,0
2017-05-07T03:04:25.404Z,0
2017-05-07T03:05:25.115Z,0
2017-05-07T03:06:25.145Z,0
2017-05-07T03:07:25.241Z,0
2017-05-07T03:08:25.199Z,0
2017-05-07T03:09:25.834Z,0
2017-05-07T03:10:25.252Z,0
2017-05-07T03:11:25.291Z,0
2017-05-07T03:12:25.239Z,0
2017-05-07T03:13:25.633Z,0
2017-05-07T03:14:25.573Z,0
2017-05-07T03:15:25.397Z,0
2017-05-07T03:16:25.518Z,0
2017-05-07T03:17:25.753Z,0
2017-05-07T03:18:25.483Z,0
2017-05-07T03:19:25.201Z,0
2017-05-07T03:20:25.541Z,0
2017-05-07T03:21:25.553Z,0
2017-05-07T03:22:25.880Z,0
2017-05-07T03:23:25.611Z,0
2017-05-07T03:24:25.943Z,0
2017-05-07T03:25:25.367Z,0
2017-05-07T03:26:25.696Z,0
2017-05-07T03:27:25.723Z,0
2017-05-07T03:28:25.764Z,0
2017-05-07T03:29:26.606Z,0
2017-05-07T03:30:25.501Z,0
2017-05-07T03:31:25.823Z,0
2017-05-07T03:32:25.855Z,0
2017-05-07T03:33:25.930Z,0
2017-05-07T03:34:26.213Z,0
2017-05-07T03:35:25.634Z,0
2017-05-07T03:36:26.461Z,0
2017-05-07T03:37:26.598Z,0
2017-05-07T03:38:26.626Z,0
2017-05-07T03:39:25.743Z,0
2017-05-07T03:40:25.776Z,0
2017-05-07T03:41:26.402Z,0
2017-05-07T03:42:26.126Z,4
2017-05-07T03:43:26.161Z,4
2017-05-07T03:44:26.502Z,4
2017-05-07T03:45:26.213Z,0
2017-05-07T03:46:26.318Z,0
2017-05-07T03:47:25.975Z,4
2017-05-07T03:48:26.600Z,4
2017-05-07T03:49:26.326Z,4
2017-05-07T03:50:26.436Z,0
2017-05-07T03:51:26.430Z,0
2017-05-07T03:52:26.544Z,4
2017-05-07T03:53:26.740Z,4
2017-05-07T03:54:26.759Z,4
2017-05-07T03:55:26.491Z,4
2017-05-07T03:56:26.514Z,0
2017-05-07T03:57:26.543Z,4
2017-05-07T03:58:26.297Z,4
2017-05-07T03:59:26.596Z,4
2017-05-07T04:00:26.320Z,4
2017-05-07T04:01:26.689Z,4
2017-05-07T04:02:26.970Z,4
2017-05-07T04:03:27.130Z,4
2017-05-07T04:04:27.042Z,4
2017-05-07T04:05:26.752Z,8
2017-05-07T04:06:26.558Z,8
2017-05-07T04:07:26.813Z,4
2017-05-07T04:08:26.862Z,8
2017-05-07T04:09:26.868Z,8
2017-05-07T04:10:26.590Z,8
2017-05-07T04:11:26.617Z,8
2017-05-07T04:12:26.947Z,8
2017-05-07T04:13:26.971Z,8
2017-05-07T04:14:27.013Z,4
2017-05-07T04:15:27.025Z,8
2017-05-07T04:16:27.361Z,8
2017-05-07T04:17:26.787Z,8
2017-05-07T04:18:27.434Z,8
2017-05-07T04:19:26.840Z,8
2017-05-07T04:20:27.160Z,8
2017-05-07T04:21:27.199Z,8
2017-05-07T04:22:27.818Z,8
2017-05-07T04:23:27.548Z,8
2017-05-07T04:24:27.865Z,8
2017-05-07T04:25:27.667Z,12
2017-05-07T04:26:27.028Z,12
2017-05-07T04:27:27.062Z,8
2017-05-07T04:28:28.110Z,8
2017-05-07T04:29:27.481Z,12
2017-05-07T04:30:27.455Z,12
2017-05-07T04:31:27.167Z,12
2017-05-07T04:32:27.810Z,16
2017-05-07T04:33:27.222Z,12
2017-05-07T04:34:27.852Z,16
2017-05-07T04:35:27.404Z,12
2017-05-07T04:36:27.331Z,12
2017-05-07T04:37:27.338Z,16
2017-05-07T04:38:27.361Z,16
2017-05-07T04:39:27.688Z,16
2017-05-07T04:40:27.710Z,20
2017-05-07T04:41:27.983Z,16
2017-05-07T04:42:28.065Z,16
2017-05-07T04:43:27.794Z,20
2017-05-07T04:44:27.718Z,16
2017-05-07T04:45:28.145Z,20
2017-05-07T04:46:27.879Z,20
2017-05-07T04:47:27.930Z,20
2017-05-07T04:48:28.233Z,20
2017-05-07T04:49:28.269Z,20
2017-05-07T04:50:27.969Z,20
2017-05-07T04:51:28.316Z,20
2017-05-07T04:52:28.337Z,24
2017-05-07T04:53:28.358Z,24
2017-05-07T04:54:27.909Z,20
2017-05-07T04:55:28.457Z,20
2017-05-07T04:56:28.427Z,24
2017-05-07T04:57:28.532Z,24
2017-05-07T04:58:28.198Z,24
2017-05-07T04:59:28.530Z,20
2017-05-07T05:00:27.953Z,20
2017-05-07T05:01:28.581Z,24
2017-05-07T05:02:28.055Z,24
2017-05-07T05:03:28.960Z,24
2017-05-07T05:04:28.394Z,24
2017-05-07T05:05:28.092Z,24
2017-05-07T05:06:28.122Z,24
2017-05-07T05:07:28.448Z,24
2017-05-07T05:08:28.466Z,28
2017-05-07T05:09:28.800Z,24
2017-05-07T05:10:28.223Z,32
2017-05-07T05:11:28.249Z,28
2017-05-07T05:12:28.582Z,28
2017-05-07T05:13:28.914Z,28
2017-05-07T05:14:28.631Z,32
2017-05-07T05:15:28.367Z,32
2017-05-07T05:16:28.681Z,32
2017-05-07T05:17:28.707Z,36
2017-05-07T05:18:28.435Z,36
2017-05-07T05:19:28.768Z,36
2017-05-07T05:20:28.895Z,32
2017-05-07T05:21:29.135Z,36
2017-05-07T05:22:29.150Z,36
2017-05-07T05:23:28.574Z,36
2017-05-07T05:24:28.903Z,36
2017-05-07T05:25:29.277Z,40
2017-05-07T05:26:28.665Z,44
2017-05-07T05:27:29.587Z,44
2017-05-07T05:28:29.617Z,40
2017-05-07T05:29:28.737Z,44
2017-05-07T05:30:29.041Z,40
2017-05-07T05:31:29.105Z,40
2017-05-07T05:32:28.826Z,40
2017-05-07T05:33:29.151Z,48
2017-05-07T05:34:29.200Z,48
2017-05-07T05:35:28.905Z,48
2017-05-07T05:36:29.532Z,48
2017-05-07T05:37:29.260Z,52
2017-05-07T05:38:29.042Z,52
2017-05-07T05:39:29.308Z,56
2017-05-07T05:40:29.036Z,56
2017-05-07T05:41:29.370Z,56
2017-05-07T05:42:29.385Z,52
2017-05-07T05:43:29.124Z,56
2017-05-07T05:44:29.445Z,56
2017-05-07T05:45:29.167Z,52
2017-05-07T05:46:29.500Z,52
2017-05-07T05:47:29.236Z,52
2017-05-07T05:48:29.860Z,48
2017-05-07T05:49:29.875Z,48
2017-05-07T05:50:29.603Z,44
2017-05-07T05:51:29.336Z,48
2017-05-07T05:52:29.661Z,44
2017-05-07T05:53:29.398Z,48
2017-05-07T05:54:30.064Z,48
2017-05-07T05:55:29.448Z,52
2017-05-07T05:56:29.775Z,52
2017-05-07T05:57:29.498Z,56
2017-05-07T05:58:29.525Z,56
2017-05-07T05:59:29.886Z,52
2017-05-07T06:00:29.874Z,52
2017-05-07T06:01:29.612Z,56
2017-05-07T06:02:29.938Z,56
2017-05-07T06:03:29.990Z,52
2017-05-07T06:04:30.287Z,52
2017-05-07T06:05:30.021Z,52
2017-05-07T06:06:30.035Z,52
2017-05-07T06:07:29.769Z,52
2017-05-07T06:08:29.796Z,52
2017-05-07T06:09:29.826Z,60
2017-05-07T06:10:30.154Z,60
2017-05-07T06:11:30.491Z,60
2017-05-07T06:12:30.483Z,60
2017-05-07T06:13:30.233Z,64
2017-05-07T06:14:30.871Z,64
2017-05-07T06:15:29.988Z,68
2017-05-07T06:16:30.008Z,72
2017-05-07T06:17:30.340Z,72
2017-05-07T06:18:30.981Z,72
2017-05-07T06:19:30.810Z,72
2017-05-07T06:20:30.419Z,64
2017-05-07T06:21:30.444Z,76
2017-05-07T06:22:30.473Z,68
2017-05-07T06:23:30.507Z,72
2017-05-07T06:24:30.525Z,68
2017-05-07T06:25:30.552Z,68
2017-05-07T06:26:30.281Z,60
2017-05-07T06:27:30.607Z,52
2017-05-07T06:28:30.945Z,56
2017-05-07T06:29:30.666Z,56
2017-05-07T06:30:30.388Z,64
2017-05-07T06:31:30.461Z,68
2017-05-07T06:32:30.748Z,64
2017-05-07T06:33:30.472Z,52
2017-05-07T06:34:30.786Z,56
2017-05-07T06:35:30.822Z,64
2017-05-07T06:36:30.844Z,68
2017-05-07T06:37:30.882Z,68
2017-05-07T06:38:31.205Z,60
2017-05-07T06:39:30.946Z,60
2017-05-07T06:40:30.657Z,60
2017-05-07T06:41:31.282Z,64
2017-05-07T06:42:30.716Z,68
2017-05-07T06:43:31.055Z,68
2017-05-07T06:44:31.066Z,72
2017-05-07T06:45:30.797Z,72
2017-05-07T06:46:31.135Z,72
2017-05-07T06:47:31.226Z,68
2017-05-07T06:48:30.877Z,68
2017-05-07T06:49:31.552Z,64
2017-05-07T06:50:31.227Z,64
2017-05-07T06:51:30.955Z,68
2017-05-07T06:52:31.295Z,68
2017-05-07T06:53:31.315Z,64
2017-05-07T06:54:31.336Z,68
2017-05-07T06:55:31.982Z,60
2017-05-07T06:56:31.388Z,64
2017-05-07T06:57:31.245Z,64
2017-05-07T06:58:31.146Z,68
2017-05-07T06:59:31.478Z,64
2017-05-07T07:00:31.491Z,64
2017-05-07T07:01:31.527Z,64
2017-05-07T07:02:31.562Z,68
2017-05-07T07:03:31.587Z,68
2017-05-07T07:04:31.620Z,64
2017-05-07T07:05:31.337Z,76
2017-05-07T07:06:31.666Z,76
2017-05-07T07:07:31.395Z,76
2017-05-07T07:08:31.566Z,76
2017-05-07T07:09:31.449Z,84
2017-05-07T07:10:31.769Z,84
2017-05-07T07:11:31.804Z,76
2017-05-07T07:12:31.827Z,80
2017-05-07T07:13:32.181Z,88
2017-05-07T07:14:31.577Z,100
2017-05-07T07:15:31.896Z,92
2017-05-07T07:16:31.626Z,80
2017-05-07T07:17:31.907Z,88
2017-05-07T07:18:31.700Z,92
2017-05-07T07:19:32.308Z,92
2017-05-07T07:20:31.733Z,96
2017-05-07T07:21:31.770Z,100
2017-05-07T07:22:32.395Z,104
2017-05-07T07:23:32.433Z,108
2017-05-07T07:24:32.538Z,100
2017-05-07T07:25:32.166Z,100
2017-05-07T07:26:32.212Z,108
2017-05-07T07:27:32.238Z,108
2017-05-07T07:28:31.953Z,116
2017-05-07T07:29:32.629Z,112
2017-05-07T07:30:32.006Z,92
2017-05-07T07:31:32.041Z,104
2017-05-07T07:32:32.708Z,100
2017-05-07T07:33:32.099Z,100
2017-05-07T07:34:32.720Z,120
2017-05-07T07:35:32.444Z,108
2017-05-07T07:36:32.177Z,96
2017-05-07T07:37:32.496Z,108
2017-05-07T07:38:32.245Z,108
2017-05-07T07:39:32.555Z,112
2017-05-07T07:40:32.580Z,112
2017-05-07T07:41:32.620Z,104
2017-05-07T07:42:32.637Z,108
2017-05-07T07:43:32.955Z,108
2017-05-07T07:44:32.694Z,124
2017-05-07T07:45:32.936Z,132
2017-05-07T07:46:33.031Z,128
2017-05-07T07:47:32.471Z,116
2017-05-07T07:48:32.798Z,128
2017-05-07T07:49:32.873Z,140
2017-05-07T07:50:32.851Z,136
2017-05-07T07:51:32.879Z,128
2017-05-07T07:52:32.599Z,140
2017-05-07T07:53:32.923Z,128
2017-05-07T07:54:32.962Z,128
2017-05-07T07:55:32.989Z,148
2017-05-07T07:56:32.719Z,148
2017-05-07T07:57:32.752Z,124
2017-05-07T07:58:32.761Z,124
2017-05-07T07:59:33.092Z,140
2017-05-07T08:00:32.813Z,156
2017-05-07T08:01:33.150Z,136
2017-05-07T08:02:33.181Z,156
2017-05-07T08:03:33.739Z,156
2017-05-07T08:04:33.522Z,144
2017-05-07T08:05:33.249Z,144
2017-05-07T08:06:33.285Z,140
2017-05-07T08:07:33.054Z,144
2017-05-07T08:08:33.281Z,136
2017-05-07T08:09:33.056Z,136
2017-05-07T08:10:33.081Z,132
2017-05-07T08:11:33.131Z,132
2017-05-07T08:12:33.462Z,144
2017-05-07T08:13:33.164Z,144
2017-05-07T08:14:33.800Z,164
2017-05-07T08:15:33.517Z,164
2017-05-07T08:16:33.860Z,160
2017-05-07T08:17:33.579Z,148
2017-05-07T08:18:33.602Z,136
2017-05-07T08:19:33.643Z,160
2017-05-07T08:20:33.723Z,152
2017-05-07T08:21:33.980Z,148
2017-05-07T08:22:34.012Z,144
2017-05-07T08:23:33.789Z,136
2017-05-07T08:24:33.810Z,144
2017-05-07T08:25:33.787Z,136
2017-05-07T08:26:33.518Z,148
2017-05-07T08:27:33.596Z,144
2017-05-07T08:28:33.878Z,140
2017-05-07T08:29:33.606Z,140
2017-05-07T08:30:34.207Z,132
2017-05-07T08:31:33.953Z,132
2017-05-07T08:32:33.981Z,128
2017-05-07T08:33:33.700Z,128
2017-05-07T08:34:33.730Z,144
2017-05-07T08:35:33.755Z,128
2017-05-07T08:36:33.783Z,120
2017-05-07T08:37:33.810Z,112
2017-05-07T08:38:34.136Z,128
2017-05-07T08:39:33.927Z,144
2017-05-07T08:40:34.195Z,136
2017-05-07T08:41:34.536Z,108
2017-05-07T08:42:34.256Z,116
2017-05-07T08:43:33.969Z,136
2017-05-07T08:44:34.327Z,116
2017-05-07T08:45:34.340Z,128
2017-05-07T08:46:34.662Z,120
2017-05-07T08:47:34.389Z,136
2017-05-07T08:48:34.415Z,136
2017-05-07T08:49:34.464Z,144
2017-05-07T08:50:34.464Z,136
2017-05-07T08:51:34.184Z,132
2017-05-07T08:52:34.525Z,144
2017-05-07T08:53:34.274Z,148
2017-05-07T08:54:34.335Z,144
2017-05-07T08:55:34.947Z,124
2017-05-07T08:56:34.322Z,136
2017-05-07T08:57:34.704Z,128
2017-05-07T08:58:34.680Z,144
2017-05-07T08:59:34.701Z,144
2017-05-07T09:00:34.461Z,156
2017-05-07T09:01:34.460Z,136
2017-05-07T09:02:34.788Z,168
2017-05-07T09:03:34.916Z,136
2017-05-07T09:04:35.148Z,128
2017-05-07T09:05:34.874Z,132
2017-05-07T09:06:34.892Z,128
2017-05-07T09:07:34.626Z,140
2017-05-07T09:08:34.649Z,128
2017-05-07T09:09:35.279Z,116
2017-05-07T09:10:34.703Z,128
2017-05-07T09:11:35.641Z,148
2017-05-07T09:12:34.809Z,132
2017-05-07T09:13:35.083Z,128
2017-05-07T09:14:34.818Z,140
2017-05-07T09:15:34.842Z,136
2017-05-07T09:16:34.859Z,128
2017-05-07T09:17:34.904Z,136
2017-05-07T09:18:35.520Z,124
2017-05-07T09:19:34.950Z,136
2017-05-07T09:20:35.293Z,156
2017-05-07T09:21:35.603Z,148
2017-05-07T09:22:35.518Z,152
2017-05-07T09:23:35.068Z,128
2017-05-07T09:24:35.083Z,140
2017-05-07T09:25:35.118Z,152
2017-05-07T09:26:35.138Z,156
2017-05-07T09:27:35.211Z,148
2017-05-07T09:28:35.189Z,148
2017-05-07T09:29:35.523Z,160
2017-05-07T09:30:35.845Z,168
2017-05-07T09:31:35.572Z,148
2017-05-07T09:32:35.594Z,160
2017-05-07T09:33:35.633Z,188
2017-05-07T09:34:35.676Z,168
2017-05-07T09:35:36.306Z,164
2017-05-07T09:36:36.199Z,188
2017-05-07T09:37:35.758Z,172
2017-05-07T09:38:35.522Z,176
2017-05-07T09:39:35.486Z,192
2017-05-07T09:40:35.506Z,180
2017-05-07T09:41:35.834Z,184
2017-05-07T09:42:35.754Z,180
2017-05-07T09:43:35.881Z,180
2017-05-07T09:44:37.289Z,164
2017-05-07T09:45:35.702Z,192
2017-05-07T09:46:35.671Z,180
2017-05-07T09:47:36.300Z,168
2017-05-07T09:48:36.058Z,180
2017-05-07T09:49:35.769Z,196
2017-05-07T09:50:35.775Z,216
2017-05-07T09:51:35.801Z,212
2017-05-07T09:52:36.129Z,216
2017-05-07T09:53:36.153Z,188
2017-05-07T09:54:35.885Z,208
2017-05-07T09:55:36.516Z,248
2017-05-07T09:56:36.244Z,228
2017-05-07T09:57:35.972Z,220
2017-05-07T09:58:35.997Z,208
2017-05-07T09:59:36.323Z,208
2017-05-07T10:00:36.051Z,224
2017-05-07T10:01:36.134Z,200
2017-05-07T10:02:36.409Z,200
2017-05-07T10:03:36.435Z,216
2017-05-07T10:04:36.154Z,224
2017-05-07T10:05:36.177Z,200
2017-05-07T10:06:36.388Z,208
2017-05-07T10:07:36.563Z,196
2017-05-07T10:08:36.266Z,192
2017-05-07T10:09:36.299Z,208
2017-05-07T10:10:36.316Z,216
2017-05-07T10:11:36.641Z,208
2017-05-07T10:12:36.374Z,212
2017-05-07T10:13:36.412Z,220
2017-05-07T10:14:36.426Z,216
2017-05-07T10:15:36.453Z,196
2017-05-07T10:16:36.574Z,204
2017-05-07T10:17:37.090Z,192
2017-05-07T10:18:36.843Z,192
2017-05-07T10:19:36.562Z,196
2017-05-07T10:20:36.590Z,228
2017-05-07T10:21:37.222Z,244
2017-05-07T10:22:37.247Z,256
2017-05-07T10:23:36.681Z,236
2017-05-07T10:24:37.004Z,248
2017-05-07T10:25:37.025Z,268
2017-05-07T10:26:36.753Z,260
2017-05-07T10:27:37.385Z,276
2017-05-07T10:28:37.104Z,272
2017-05-07T10:29:36.871Z,276
2017-05-07T10:30:37.164Z,272
2017-05-07T10:31:37.499Z,260
2017-05-07T10:32:36.922Z,252
2017-05-07T10:33:37.017Z,248
2017-05-07T10:34:37.268Z,232
2017-05-07T10:35:36.996Z,232
2017-05-07T10:36:37.323Z,300
2017-05-07T10:37:37.356Z,264
2017-05-07T10:38:37.427Z,208
2017-05-07T10:39:37.410Z,180
2017-05-07T10:40:37.243Z,176
2017-05-07T10:41:37.165Z,168
2017-05-07T10:42:37.494Z,168
2017-05-07T10:43:37.510Z,148
2017-05-07T10:44:37.567Z,172
2017-05-07T10:45:37.567Z,160
2017-05-07T10:46:37.290Z,188
2017-05-07T10:47:37.327Z,204
2017-05-07T10:48:37.701Z,200
2017-05-07T10:49:37.669Z,188
2017-05-07T10:50:37.708Z,212
2017-05-07T10:51:37.426Z,204
2017-05-07T10:52:37.451Z,192
2017-05-07T10:53:37.480Z,200
2017-05-07T10:54:38.119Z,188
2017-05-07T10:55:37.873Z,196
2017-05-07T10:56:37.871Z,180
2017-05-07T10:57:37.602Z,188
2017-05-07T10:58:38.522Z,192
2017-05-07T10:59:37.950Z,228
2017-05-07T11:00:37.975Z,208
2017-05-07T11:01:37.710Z,208
2017-05-07T11:02:38.035Z,240
2017-05-07T11:03:38.361Z,200
2017-05-07T11:04:38.082Z,212
2017-05-07T11:05:38.106Z,188
2017-05-07T11:06:38.205Z,232
2017-05-07T11:07:38.176Z,260
2017-05-07T11:08:37.893Z,244
2017-05-07T11:09:37.919Z,220
2017-05-07T11:10:38.247Z,232
2017-05-07T11:11:38.267Z,200
2017-05-07T11:12:38.608Z,208
2017-05-07T11:13:38.028Z,204
2017-05-07T11:14:38.368Z,188
2017-05-07T11:15:38.077Z,208
2017-05-07T11:16:38.109Z,200
2017-05-07T11:17:38.131Z,204
2017-05-07T11:18:38.476Z,184
2017-05-07T11:19:38.497Z,176
2017-05-07T11:20:38.260Z,164
2017-05-07T11:21:38.546Z,156
2017-05-07T11:22:38.507Z,176
2017-05-07T11:23:38.603Z,184
2017-05-07T11:24:38.327Z,180
2017-05-07T11:25:38.669Z,160
2017-05-07T11:26:38.694Z,148
2017-05-07T11:27:38.874Z,152
2017-05-07T11:28:38.428Z,156
2017-05-07T11:29:38.465Z,172
2017-05-07T11:30:38.488Z,168
2017-05-07T11:31:38.528Z,156
2017-05-07T11:32:38.860Z,156
2017-05-07T11:33:38.865Z,200
2017-05-07T11:34:38.902Z,196
2017-05-07T11:35:38.727Z,188
2017-05-07T11:36:39.264Z,176
2017-05-07T11:37:38.981Z,216
2017-05-07T11:38:38.709Z,224
2017-05-07T11:39:38.735Z,248
2017-05-07T11:40:39.173Z,240
2017-05-07T11:41:38.791Z,204
2017-05-07T11:42:38.818Z,184
2017-05-07T11:43:39.145Z,212
2017-05-07T11:44:39.173Z,208
2017-05-07T11:45:39.098Z,196
2017-05-07T11:46:38.920Z,176
2017-05-07T11:47:39.263Z,200
2017-05-07T11:48:39.283Z,152
2017-05-07T11:49:39.005Z,144
2017-05-07T11:50:39.026Z,144
2017-05-07T11:51:39.668Z,160
2017-05-07T11:52:39.086Z,144
2017-05-07T11:53:39.128Z,132
2017-05-07T11:54:39.145Z,164
2017-05-07T11:55:39.472Z,172
2017-05-07T11:56:39.194Z,196
2017-05-07T11:57:39.225Z,216
2017-05-07T11:58:39.257Z,216
2017-05-07T11:59:39.582Z,220
2017-05-07T12:00:39.607Z,228
2017-05-07T12:01:39.625Z,240
2017-05-07T12:02:39.354Z,244
2017-05-07T12:03:39.683Z,256
2017-05-07T12:04:39.408Z,268
2017-05-07T12:05:39.753Z,284
2017-05-07T12:06:39.471Z,300
2017-05-07T12:07:39.490Z,296
2017-05-07T12:08:39.516Z,308
2017-05-07T12:09:39.553Z,312
2017-05-07T12:10:39.572Z,280
2017-05-07T12:11:39.903Z,208
2017-05-07T12:12:39.658Z,216
2017-05-07T12:13:39.961Z,176
2017-05-07T12:14:40.431Z,164
2017-05-07T12:15:40.014Z,184
2017-05-07T12:16:39.731Z,248
2017-05-07T12:17:40.092Z,212
2017-05-07T12:18:39.789Z,208
2017-05-07T12:19:40.124Z,204
2017-05-07T12:20:40.155Z,188
2017-05-07T12:21:39.869Z,204
2017-05-07T12:22:40.498Z,204
2017-05-07T12:23:39.930Z,208
2017-05-07T12:24:39.955Z,168
2017-05-07T12:25:40.279Z,192
2017-05-07T12:26:40.012Z,188
2017-05-07T12:27:40.037Z,148
2017-05-07T12:28:40.059Z,104
2017-05-07T12:29:40.391Z,140
2017-05-07T12:30:40.110Z,140
2017-05-07T12:31:40.149Z,152
2017-05-07T12:32:40.470Z,156
2017-05-07T12:33:40.510Z,168
2017-05-07T12:34:40.226Z,172
2017-05-07T12:35:40.250Z,176
2017-05-07T12:36:40.578Z,180
2017-05-07T12:37:40.607Z,184
2017-05-07T12:38:40.329Z,196
2017-05-07T12:39:40.359Z,204
2017-05-07T12:40:40.440Z,168
2017-05-07T12:41:40.720Z,188
2017-05-07T12:42:40.740Z,208
2017-05-07T12:43:40.773Z,200
2017-05-07T12:44:40.502Z,192
2017-05-07T12:45:40.824Z,188
2017-05-07T12:46:40.548Z,184
2017-05-07T12:47:40.574Z,204
2017-05-07T12:48:41.212Z,216
2017-05-07T12:49:40.655Z,200
2017-05-07T12:50:40.973Z,160
2017-05-07T12:51:40.683Z,160
2017-05-07T12:52:40.706Z,176
2017-05-07T12:53:41.036Z,204
2017-05-07T12:54:40.766Z,232
2017-05-07T12:55:41.096Z,256
2017-05-07T12:56:40.819Z,264
2017-05-07T12:57:41.445Z,260
2017-05-07T12:58:41.176Z,248
2017-05-07T12:59:41.208Z,244
2017-05-07T13:00:40.925Z,256
2017-05-07T13:01:40.970Z,260
2017-05-07T13:02:40.980Z,284
2017-05-07T13:03:41.008Z,292
2017-05-07T13:04:41.940Z,280
2017-05-07T13:05:41.059Z,252
2017-05-07T13:06:41.089Z,204
2017-05-07T13:07:41.121Z,156
2017-05-07T13:08:41.742Z,204
2017-05-07T13:09:41.184Z,232
2017-05-07T13:10:41.193Z,224
2017-05-07T13:11:41.218Z,196
2017-05-07T13:12:41.259Z,168
2017-05-07T13:13:41.583Z,140
2017-05-07T13:14:41.962Z,116
2017-05-07T13:15:41.334Z,124
2017-05-07T13:16:41.662Z,144
2017-05-07T13:17:41.405Z,196
2017-05-07T13:18:41.730Z,176
2017-05-07T13:19:41.434Z,200
2017-05-07T13:20:42.070Z,236
2017-05-07T13:21:41.794Z,280
2017-05-07T13:22:41.525Z,304
2017-05-07T13:23:41.567Z,324
2017-05-07T13:24:41.880Z,332
2017-05-07T13:25:42.504Z,348
2017-05-07T13:26:41.634Z,340
2017-05-07T13:27:41.657Z,344
2017-05-07T13:28:41.984Z,308
2017-05-07T13:29:42.020Z,228
2017-05-07T13:30:41.793Z,240
2017-05-07T13:31:41.777Z,192
2017-05-07T13:32:42.100Z,196
2017-05-07T13:33:42.128Z,184
2017-05-07T13:34:41.853Z,184
2017-05-07T13:35:42.176Z,188
2017-05-07T13:36:41.903Z,184
2017-05-07T13:37:42.238Z,216
2017-05-07T13:38:42.269Z,224
2017-05-07T13:39:41.985Z,224
2017-05-07T13:40:42.024Z,236
2017-05-07T13:41:42.066Z,232
2017-05-07T13:42:42.064Z,220
2017-05-07T13:43:42.108Z,252
2017-05-07T13:44:42.719Z,252
2017-05-07T13:45:42.459Z,236
2017-05-07T13:46:42.202Z,276
2017-05-07T13:47:42.502Z,312
2017-05-07T13:48:42.618Z,332
2017-05-07T13:49:42.281Z,320
2017-05-07T13:50:42.592Z,324
2017-05-07T13:51:42.622Z,316
2017-05-07T13:52:42.665Z,288
2017-05-07T13:53:42.671Z,260
2017-05-07T13:54:42.694Z,252
2017-05-07T13:55:42.733Z,252
2017-05-07T13:56:42.755Z,260
2017-05-07T13:57:42.499Z,268
2017-05-07T13:58:42.507Z,280
2017-05-07T13:59:42.828Z,300
2017-05-07T14:00:43.169Z,296
2017-05-07T14:01:42.587Z,280
2017-05-07T14:02:42.931Z,276
2017-05-07T14:03:43.240Z,272
2017-05-07T14:04:42.979Z,276
2017-05-07T14:05:43.014Z,280
2017-05-07T14:06:43.031Z,276
2017-05-07T14:07:43.057Z,268
2017-05-07T14:08:42.792Z,300
2017-05-07T14:09:42.811Z,288
2017-05-07T14:10:43.176Z,292